sensor_id;sensor_type;location;lat;lon;timestamp;pressure;altitude;pressure_sealevel;temperature;humidity
51067;BME280;37112;45.892;-123.962;2024-03-08T00:00:14;102199.36;;;10.10;50.74
51067;BME280;37112;45.892;-123.962;2024-03-08T00:02:48;102199.83;;;9.94;51.37
51067;BME280;37112;45.892;-123.962;2024-03-08T00:04:59;102196.96;;;9.95;52.49
51067;BME280;37112;45.892;-123.962;2024-03-08T00:07:08;102197.00;;;9.98;52.58
51067;BME280;37112;45.892;-123.962;2024-03-08T00:09:18;102197.77;;;9.97;52.66
51067;BME280;37112;45.892;-123.962;2024-03-08T00:11:29;102201.64;;;10.02;51.94
51067;BME280;37112;45.892;-123.962;2024-03-08T00:13:39;102207.39;;;10.05;51.85
51067;BME280;37112;45.892;-123.962;2024-03-08T00:15:49;102204.86;;;10.01;51.31
51067;BME280;37112;45.892;-123.962;2024-03-08T00:17:59;102204.60;;;9.94;51.89
51067;BME280;37112;45.892;-123.962;2024-03-08T00:20:10;102205.83;;;9.91;52.37
51067;BME280;37112;45.892;-123.962;2024-03-08T00:22:19;102210.14;;;9.90;51.89
51067;BME280;37112;45.892;-123.962;2024-03-08T00:24:30;102212.64;;;9.85;52.09
51067;BME280;37112;45.892;-123.962;2024-03-08T00:26:40;102212.50;;;9.79;51.83
51067;BME280;37112;45.892;-123.962;2024-03-08T00:28:51;102218.64;;;9.72;52.20
51067;BME280;37112;45.892;-123.962;2024-03-08T00:31:01;102219.98;;;9.65;51.56
51067;BME280;37112;45.892;-123.962;2024-03-08T00:33:12;102219.14;;;9.60;52.79
51067;BME280;37112;45.892;-123.962;2024-03-08T00:35:22;102221.54;;;9.62;53.20
51067;BME280;37112;45.892;-123.962;2024-03-08T00:37:32;102223.02;;;9.60;53.18
51067;BME280;37112;45.892;-123.962;2024-03-08T00:39:42;102229.84;;;9.58;53.55
51067;BME280;37112;45.892;-123.962;2024-03-08T00:41:52;102232.38;;;9.57;53.90
51067;BME280;37112;45.892;-123.962;2024-03-08T00:44:02;102231.21;;;9.55;53.81
51067;BME280;37112;45.892;-123.962;2024-03-08T00:46:12;102232.02;;;9.47;53.83
51067;BME280;37112;45.892;-123.962;2024-03-08T00:48:22;102231.67;;;9.43;54.09
51067;BME280;37112;45.892;-123.962;2024-03-08T00:50:32;102229.60;;;9.37;54.08
51067;BME280;37112;45.892;-123.962;2024-03-08T00:52:43;102230.71;;;9.31;54.47
51067;BME280;37112;45.892;-123.962;2024-03-08T00:54:55;102234.28;;;9.26;54.37
51067;BME280;37112;45.892;-123.962;2024-03-08T00:57:04;102237.96;;;9.17;54.24
51067;BME280;37112;45.892;-123.962;2024-03-08T00:59:15;102239.50;;;9.10;54.87
51067;BME280;37112;45.892;-123.962;2024-03-08T01:01:24;102241.77;;;9.06;55.18
51067;BME280;37112;45.892;-123.962;2024-03-08T01:03:35;102245.77;;;9.03;55.14
51067;BME280;37112;45.892;-123.962;2024-03-08T01:05:45;102250.59;;;8.98;55.06
51067;BME280;37112;45.892;-123.962;2024-03-08T01:07:55;102251.34;;;8.91;55.12
51067;BME280;37112;45.892;-123.962;2024-03-08T01:10:06;102248.67;;;8.86;55.38
51067;BME280;37112;45.892;-123.962;2024-03-08T01:12:18;102249.05;;;8.81;55.63
51067;BME280;37112;45.892;-123.962;2024-03-08T01:14:28;102245.63;;;8.78;55.68
51067;BME280;37112;45.892;-123.962;2024-03-08T01:16:39;102241.31;;;8.74;56.19
51067;BME280;37112;45.892;-123.962;2024-03-08T01:18:49;102237.30;;;8.73;56.12
51067;BME280;37112;45.892;-123.962;2024-03-08T01:20:59;102236.51;;;8.70;56.47
51067;BME280;37112;45.892;-123.962;2024-03-08T01:23:09;102243.50;;;8.68;56.48
51067;BME280;37112;45.892;-123.962;2024-03-08T01:25:22;102240.10;;;8.63;56.65
51067;BME280;37112;45.892;-123.962;2024-03-08T01:27:32;102244.27;;;8.61;56.94
51067;BME280;37112;45.892;-123.962;2024-03-08T01:29:43;102246.16;;;8.57;56.62
51067;BME280;37112;45.892;-123.962;2024-03-08T01:31:54;102249.27;;;8.54;56.97
51067;BME280;37112;45.892;-123.962;2024-03-08T01:34:04;102248.64;;;8.52;57.22
51067;BME280;37112;45.892;-123.962;2024-03-08T01:36:14;102244.64;;;8.51;57.46
51067;BME280;37112;45.892;-123.962;2024-03-08T01:38:24;102246.46;;;8.49;57.53
51067;BME280;37112;45.892;-123.962;2024-03-08T01:40:34;102245.52;;;8.45;57.69
51067;BME280;37112;45.892;-123.962;2024-03-08T01:42:44;102246.03;;;8.41;57.81
51067;BME280;37112;45.892;-123.962;2024-03-08T01:44:56;102241.42;;;8.35;58.09
51067;BME280;37112;45.892;-123.962;2024-03-08T01:47:06;102239.47;;;8.29;58.34
51067;BME280;37112;45.892;-123.962;2024-03-08T01:49:16;102237.58;;;8.22;58.46
51067;BME280;37112;45.892;-123.962;2024-03-08T01:51:26;102242.29;;;8.15;58.66
51067;BME280;37112;45.892;-123.962;2024-03-08T01:53:36;102240.81;;;8.05;59.01
51067;BME280;37112;45.892;-123.962;2024-03-08T01:55:50;102235.27;;;7.96;59.12
51067;BME280;37112;45.892;-123.962;2024-03-08T01:58:01;102229.54;;;7.87;59.43
51067;BME280;37112;45.892;-123.962;2024-03-08T02:00:14;102223.13;;;7.78;59.64
51067;BME280;37112;45.892;-123.962;2024-03-08T02:02:24;102223.23;;;7.69;59.97
51067;BME280;37112;45.892;-123.962;2024-03-08T02:04:35;102220.67;;;7.60;60.25
51067;BME280;37112;45.892;-123.962;2024-03-08T02:06:45;102219.91;;;7.50;60.33
51067;BME280;37112;45.892;-123.962;2024-03-08T02:08:56;102221.31;;;7.39;60.53
51067;BME280;37112;45.892;-123.962;2024-03-08T02:11:06;102218.97;;;7.29;60.88
51067;BME280;37112;45.892;-123.962;2024-03-08T02:13:16;102219.06;;;7.20;61.20
51067;BME280;37112;45.892;-123.962;2024-03-08T02:15:50;102222.48;;;7.12;61.40
51067;BME280;37112;45.892;-123.962;2024-03-08T02:17:57;102222.63;;;7.01;61.76
51067;BME280;37112;45.892;-123.962;2024-03-08T02:20:08;102225.70;;;6.92;61.98
51067;BME280;37112;45.892;-123.962;2024-03-08T02:22:21;102224.67;;;6.85;62.24
51067;BME280;37112;45.892;-123.962;2024-03-08T02:24:31;102222.58;;;6.78;62.34
51067;BME280;37112;45.892;-123.962;2024-03-08T02:26:41;102229.63;;;6.72;62.77
51067;BME280;37112;45.892;-123.962;2024-03-08T02:28:51;102228.39;;;6.65;62.94
51067;BME280;37112;45.892;-123.962;2024-03-08T02:31:01;102227.51;;;6.59;63.05
51067;BME280;37112;45.892;-123.962;2024-03-08T02:33:12;102223.63;;;6.52;63.31
51067;BME280;37112;45.892;-123.962;2024-03-08T02:36:33;102230.45;;;6.48;63.67
51067;BME280;37112;45.892;-123.962;2024-03-08T02:38:46;102237.17;;;6.40;63.91
51067;BME280;37112;45.892;-123.962;2024-03-08T02:40:59;102238.77;;;6.33;64.02
51067;BME280;37112;45.892;-123.962;2024-03-08T02:43:14;102242.45;;;6.27;64.25
51067;BME280;37112;45.892;-123.962;2024-03-08T02:45:28;102243.84;;;6.21;64.40
51067;BME280;37112;45.892;-123.962;2024-03-08T02:47:41;102250.13;;;6.16;64.72
51067;BME280;37112;45.892;-123.962;2024-03-08T02:49:54;102252.06;;;6.09;64.99
51067;BME280;37112;45.892;-123.962;2024-03-08T02:52:08;102249.58;;;6.03;65.27
51067;BME280;37112;45.892;-123.962;2024-03-08T02:54:22;102256.23;;;5.97;65.50
51067;BME280;37112;45.892;-123.962;2024-03-08T02:56:36;102257.92;;;5.93;65.67
51067;BME280;37112;45.892;-123.962;2024-03-08T02:58:50;102262.23;;;5.88;65.80
51067;BME280;37112;45.892;-123.962;2024-03-08T03:01:04;102263.60;;;5.82;65.98
51067;BME280;37112;45.892;-123.962;2024-03-08T03:03:17;102263.56;;;5.77;66.35
51067;BME280;37112;45.892;-123.962;2024-03-08T03:05:30;102261.42;;;5.70;66.61
51067;BME280;37112;45.892;-123.962;2024-03-08T03:07:45;102259.45;;;5.64;66.63
51067;BME280;37112;45.892;-123.962;2024-03-08T03:09:58;102257.84;;;5.56;66.83
51067;BME280;37112;45.892;-123.962;2024-03-08T03:12:12;102263.06;;;5.51;67.03
51067;BME280;37112;45.892;-123.962;2024-03-08T03:14:28;102264.05;;;5.46;67.10
51067;BME280;37112;45.892;-123.962;2024-03-08T03:16:42;102264.18;;;5.41;67.22
51067;BME280;37112;45.892;-123.962;2024-03-08T03:18:56;102262.02;;;5.35;67.22
51067;BME280;37112;45.892;-123.962;2024-03-08T03:21:12;102260.73;;;5.28;67.47
51067;BME280;37112;45.892;-123.962;2024-03-08T03:23:26;102257.17;;;5.22;67.59
51067;BME280;37112;45.892;-123.962;2024-03-08T03:25:44;102253.27;;;5.15;67.69
51067;BME280;37112;45.892;-123.962;2024-03-08T03:27:57;102249.71;;;5.08;67.88
51067;BME280;37112;45.892;-123.962;2024-03-08T03:30:11;102249.32;;;5.00;68.08
51067;BME280;37112;45.892;-123.962;2024-03-08T03:32:33;102245.95;;;4.94;68.18
51067;BME280;37112;45.892;-123.962;2024-03-08T03:34:57;102239.55;;;4.88;68.35
51067;BME280;37112;45.892;-123.962;2024-03-08T03:37:10;102237.52;;;4.84;68.56
51067;BME280;37112;45.892;-123.962;2024-03-08T03:39:24;102236.19;;;4.80;68.74
51067;BME280;37112;45.892;-123.962;2024-03-08T03:41:40;102235.04;;;4.76;68.92
51067;BME280;37112;45.892;-123.962;2024-03-08T03:43:55;102234.02;;;4.73;68.96
51067;BME280;37112;45.892;-123.962;2024-03-08T03:46:10;102240.77;;;4.70;69.19
51067;BME280;37112;45.892;-123.962;2024-03-08T03:48:22;102242.91;;;4.69;69.22
51067;BME280;37112;45.892;-123.962;2024-03-08T03:50:38;102244.71;;;4.66;69.38
51067;BME280;37112;45.892;-123.962;2024-03-08T03:52:50;102248.08;;;4.64;69.49
51067;BME280;37112;45.892;-123.962;2024-03-08T03:55:04;102252.36;;;4.62;69.49
51067;BME280;37112;45.892;-123.962;2024-03-08T03:57:18;102251.31;;;4.62;69.67
51067;BME280;37112;45.892;-123.962;2024-03-08T03:59:33;102254.17;;;4.60;69.85
51067;BME280;37112;45.892;-123.962;2024-03-08T04:01:46;102255.95;;;4.57;69.95
51067;BME280;37112;45.892;-123.962;2024-03-08T04:04:00;102257.09;;;4.53;70.08
51067;BME280;37112;45.892;-123.962;2024-03-08T04:06:14;102254.32;;;4.51;70.13
51067;BME280;37112;45.892;-123.962;2024-03-08T04:08:28;102255.77;;;4.49;70.34
51067;BME280;37112;45.892;-123.962;2024-03-08T04:10:42;102255.11;;;4.46;70.52
51067;BME280;37112;45.892;-123.962;2024-03-08T04:12:55;102253.07;;;4.42;70.50
51067;BME280;37112;45.892;-123.962;2024-03-08T04:15:09;102254.04;;;4.37;70.75
51067;BME280;37112;45.892;-123.962;2024-03-08T04:17:23;102255.16;;;4.32;70.80
51067;BME280;37112;45.892;-123.962;2024-03-08T04:19:37;102250.48;;;4.28;70.98
51067;BME280;37112;45.892;-123.962;2024-03-08T04:21:49;102249.30;;;4.26;71.00
51067;BME280;37112;45.892;-123.962;2024-03-08T04:24:02;102248.32;;;4.22;71.16
51067;BME280;37112;45.892;-123.962;2024-03-08T04:26:16;102249.06;;;4.19;71.17
51067;BME280;37112;45.892;-123.962;2024-03-08T04:28:29;102246.30;;;4.16;71.36
51067;BME280;37112;45.892;-123.962;2024-03-08T04:30:41;102245.30;;;4.12;71.35
51067;BME280;37112;45.892;-123.962;2024-03-08T04:32:56;102241.48;;;4.09;71.54
51067;BME280;37112;45.892;-123.962;2024-03-08T04:35:11;102239.23;;;4.08;71.57
51067;BME280;37112;45.892;-123.962;2024-03-08T04:37:26;102237.87;;;4.06;71.62
51067;BME280;37112;45.892;-123.962;2024-03-08T04:39:40;102236.64;;;4.06;71.94
51067;BME280;37112;45.892;-123.962;2024-03-08T04:41:53;102237.70;;;4.06;72.10
51067;BME280;37112;45.892;-123.962;2024-03-08T04:44:08;102236.66;;;4.05;72.20
51067;BME280;37112;45.892;-123.962;2024-03-08T04:46:21;102239.46;;;4.04;72.15
51067;BME280;37112;45.892;-123.962;2024-03-08T04:48:34;102241.23;;;4.03;72.38
51067;BME280;37112;45.892;-123.962;2024-03-08T04:50:47;102240.90;;;4.02;72.36
51067;BME280;37112;45.892;-123.962;2024-03-08T04:53:00;102239.69;;;4.01;72.43
51067;BME280;37112;45.892;-123.962;2024-03-08T04:55:14;102239.38;;;3.99;72.32
51067;BME280;37112;45.892;-123.962;2024-03-08T04:57:30;102241.33;;;3.99;72.36
51067;BME280;37112;45.892;-123.962;2024-03-08T04:59:44;102238.88;;;3.98;72.52
51067;BME280;37112;45.892;-123.962;2024-03-08T05:02:00;102239.41;;;3.97;72.64
51067;BME280;37112;45.892;-123.962;2024-03-08T05:04:13;102240.80;;;3.97;72.77
51067;BME280;37112;45.892;-123.962;2024-03-08T05:06:27;102238.69;;;3.97;72.75
51067;BME280;37112;45.892;-123.962;2024-03-08T05:08:40;102239.76;;;3.96;72.73
51067;BME280;37112;45.892;-123.962;2024-03-08T05:10:54;102236.63;;;3.94;72.87
51067;BME280;37112;45.892;-123.962;2024-03-08T05:13:07;102237.73;;;3.92;72.70
51067;BME280;37112;45.892;-123.962;2024-03-08T05:15:21;102239.53;;;3.88;72.87
51067;BME280;37112;45.892;-123.962;2024-03-08T05:17:34;102241.86;;;3.86;72.82
51067;BME280;37112;45.892;-123.962;2024-03-08T05:19:47;102245.60;;;3.83;72.91
51067;BME280;37112;45.892;-123.962;2024-03-08T05:21:59;102239.85;;;3.79;72.97
51067;BME280;37112;45.892;-123.962;2024-03-08T05:24:13;102244.47;;;3.76;73.17
51067;BME280;37112;45.892;-123.962;2024-03-08T05:26:28;102243.10;;;3.74;73.14
51067;BME280;37112;45.892;-123.962;2024-03-08T05:28:41;102245.58;;;3.72;73.17
51067;BME280;37112;45.892;-123.962;2024-03-08T05:30:54;102244.75;;;3.69;73.35
51067;BME280;37112;45.892;-123.962;2024-03-08T05:33:08;102241.79;;;3.68;73.46
51067;BME280;37112;45.892;-123.962;2024-03-08T05:35:21;102242.66;;;3.68;73.47
51067;BME280;37112;45.892;-123.962;2024-03-08T05:37:38;102240.76;;;3.65;73.48
51067;BME280;37112;45.892;-123.962;2024-03-08T05:39:52;102238.35;;;3.62;73.36
51067;BME280;37112;45.892;-123.962;2024-03-08T05:42:07;102237.50;;;3.60;73.53
51067;BME280;37112;45.892;-123.962;2024-03-08T05:44:20;102243.84;;;3.59;73.74
51067;BME280;37112;45.892;-123.962;2024-03-08T05:46:33;102245.27;;;3.58;73.90
51067;BME280;37112;45.892;-123.962;2024-03-08T05:48:46;102254.38;;;3.58;73.95
51067;BME280;37112;45.892;-123.962;2024-03-08T05:50:59;102260.02;;;3.58;74.09
51067;BME280;37112;45.892;-123.962;2024-03-08T05:53:14;102262.27;;;3.59;74.20
51067;BME280;37112;45.892;-123.962;2024-03-08T05:55:27;102263.82;;;3.61;74.42
51067;BME280;37112;45.892;-123.962;2024-03-08T05:57:41;102260.46;;;3.63;74.45
51067;BME280;37112;45.892;-123.962;2024-03-08T05:59:54;102259.05;;;3.63;74.39
51067;BME280;37112;45.892;-123.962;2024-03-08T06:02:07;102255.38;;;3.62;74.47
51067;BME280;37112;45.892;-123.962;2024-03-08T06:04:22;102255.40;;;3.61;74.31
51067;BME280;37112;45.892;-123.962;2024-03-08T06:06:35;102258.59;;;3.59;74.34
51067;BME280;37112;45.892;-123.962;2024-03-08T06:08:48;102264.40;;;3.58;74.32
51067;BME280;37112;45.892;-123.962;2024-03-08T06:11:01;102264.24;;;3.56;74.42
51067;BME280;37112;45.892;-123.962;2024-03-08T06:13:15;102267.95;;;3.55;74.54
51067;BME280;37112;45.892;-123.962;2024-03-08T06:15:28;102270.80;;;3.53;74.67
51067;BME280;37112;45.892;-123.962;2024-03-08T06:17:41;102270.27;;;3.53;75.02
51067;BME280;37112;45.892;-123.962;2024-03-08T06:19:54;102260.41;;;3.54;74.99
51067;BME280;37112;45.892;-123.962;2024-03-08T06:22:08;102256.02;;;3.54;75.26
51067;BME280;37112;45.892;-123.962;2024-03-08T06:24:22;102256.68;;;3.56;75.52
51067;BME280;37112;45.892;-123.962;2024-03-08T06:26:35;102254.90;;;3.60;75.68
51067;BME280;37112;45.892;-123.962;2024-03-08T06:28:48;102255.71;;;3.63;75.90
51067;BME280;37112;45.892;-123.962;2024-03-08T06:31:01;102253.05;;;3.67;76.10
51067;BME280;37112;45.892;-123.962;2024-03-08T06:33:15;102245.27;;;3.70;76.19
51067;BME280;37112;45.892;-123.962;2024-03-08T06:35:28;102245.21;;;3.74;76.45
51067;BME280;37112;45.892;-123.962;2024-03-08T06:37:42;102241.43;;;3.79;76.52
51067;BME280;37112;45.892;-123.962;2024-03-08T06:39:56;102238.77;;;3.82;76.50
51067;BME280;37112;45.892;-123.962;2024-03-08T06:42:09;102231.52;;;3.84;76.46
51067;BME280;37112;45.892;-123.962;2024-03-08T06:44:23;102233.61;;;3.85;76.46
51067;BME280;37112;45.892;-123.962;2024-03-08T06:46:36;102231.32;;;3.85;76.42
51067;BME280;37112;45.892;-123.962;2024-03-08T06:48:48;102229.02;;;3.86;76.26
51067;BME280;37112;45.892;-123.962;2024-03-08T06:51:01;102225.33;;;3.86;76.31
51067;BME280;37112;45.892;-123.962;2024-03-08T06:53:14;102225.85;;;3.87;76.29
51067;BME280;37112;45.892;-123.962;2024-03-08T06:55:33;102226.02;;;3.86;76.32
51067;BME280;37112;45.892;-123.962;2024-03-08T06:57:47;102222.00;;;3.85;76.37
51067;BME280;37112;45.892;-123.962;2024-03-08T07:00:00;102228.48;;;3.86;76.50
51067;BME280;37112;45.892;-123.962;2024-03-08T07:02:13;102230.59;;;3.86;76.65
51067;BME280;37112;45.892;-123.962;2024-03-08T07:04:26;102234.27;;;3.87;76.64
51067;BME280;37112;45.892;-123.962;2024-03-08T07:06:40;102234.66;;;3.85;76.74
51067;BME280;37112;45.892;-123.962;2024-03-08T07:08:53;102240.11;;;3.85;76.85
51067;BME280;37112;45.892;-123.962;2024-03-08T07:11:06;102242.38;;;3.86;76.97
51067;BME280;37112;45.892;-123.962;2024-03-08T07:13:20;102244.28;;;3.88;77.08
51067;BME280;37112;45.892;-123.962;2024-03-08T07:15:33;102246.36;;;3.91;77.27
51067;BME280;37112;45.892;-123.962;2024-03-08T07:17:47;102251.20;;;3.95;77.45
51067;BME280;37112;45.892;-123.962;2024-03-08T07:20:03;102250.31;;;3.96;77.26
51067;BME280;37112;45.892;-123.962;2024-03-08T07:22:21;102249.77;;;3.97;77.42
51067;BME280;37112;45.892;-123.962;2024-03-08T07:24:37;102256.63;;;3.98;77.39
51067;BME280;37112;45.892;-123.962;2024-03-08T07:27:06;102259.77;;;3.98;77.43
51067;BME280;37112;45.892;-123.962;2024-03-08T07:29:23;102259.08;;;3.98;77.61
51067;BME280;37112;45.892;-123.962;2024-03-08T07:31:35;102256.98;;;3.98;77.68
51067;BME280;37112;45.892;-123.962;2024-03-08T07:34:00;102257.11;;;3.99;77.89
51067;BME280;37112;45.892;-123.962;2024-03-08T07:36:14;102257.09;;;4.01;77.94
51067;BME280;37112;45.892;-123.962;2024-03-08T07:38:27;102253.02;;;4.02;78.07
51067;BME280;37112;45.892;-123.962;2024-03-08T07:40:44;102248.95;;;4.05;78.16
51067;BME280;37112;45.892;-123.962;2024-03-08T07:42:57;102246.44;;;4.08;78.47
51067;BME280;37112;45.892;-123.962;2024-03-08T07:45:12;102241.27;;;4.12;78.55
51067;BME280;37112;45.892;-123.962;2024-03-08T07:47:26;102239.77;;;4.17;78.66
51067;BME280;37112;45.892;-123.962;2024-03-08T07:49:46;102242.70;;;4.22;78.86
51067;BME280;37112;45.892;-123.962;2024-03-08T07:51:59;102241.38;;;4.26;79.00
51067;BME280;37112;45.892;-123.962;2024-03-08T07:54:12;102240.41;;;4.32;78.97
51067;BME280;37112;45.892;-123.962;2024-03-08T07:56:24;102238.77;;;4.35;78.90
51067;BME280;37112;45.892;-123.962;2024-03-08T07:58:37;102240.64;;;4.39;78.90
51067;BME280;37112;45.892;-123.962;2024-03-08T08:00:51;102239.02;;;4.41;78.86
51067;BME280;37112;45.892;-123.962;2024-03-08T08:03:04;102240.02;;;4.44;78.78
51067;BME280;37112;45.892;-123.962;2024-03-08T08:05:22;102236.61;;;4.47;78.72
51067;BME280;37112;45.892;-123.962;2024-03-08T08:07:34;102231.47;;;4.49;78.54
51067;BME280;37112;45.892;-123.962;2024-03-08T08:09:47;102229.55;;;4.49;78.50
51067;BME280;37112;45.892;-123.962;2024-03-08T08:12:00;102228.48;;;4.49;78.47
51067;BME280;37112;45.892;-123.962;2024-03-08T08:14:14;102229.70;;;4.50;78.53
51067;BME280;37112;45.892;-123.962;2024-03-08T08:16:27;102227.61;;;4.48;78.37
51067;BME280;37112;45.892;-123.962;2024-03-08T08:18:42;102227.98;;;4.48;78.52
51067;BME280;37112;45.892;-123.962;2024-03-08T08:20:57;102227.80;;;4.48;78.61
51067;BME280;37112;45.892;-123.962;2024-03-08T08:23:10;102224.80;;;4.48;78.55
51067;BME280;37112;45.892;-123.962;2024-03-08T08:25:23;102225.02;;;4.46;78.52
51067;BME280;37112;45.892;-123.962;2024-03-08T08:27:36;102225.26;;;4.43;78.51
51067;BME280;37112;45.892;-123.962;2024-03-08T08:29:50;102224.06;;;4.41;78.47
51067;BME280;37112;45.892;-123.962;2024-03-08T08:32:14;102223.42;;;4.38;78.67
51067;BME280;37112;45.892;-123.962;2024-03-08T08:34:31;102223.10;;;4.36;78.70
51067;BME280;37112;45.892;-123.962;2024-03-08T08:36:44;102225.21;;;4.36;78.77
51067;BME280;37112;45.892;-123.962;2024-03-08T08:38:57;102223.46;;;4.35;78.87
51067;BME280;37112;45.892;-123.962;2024-03-08T08:41:11;102220.48;;;4.34;78.85
51067;BME280;37112;45.892;-123.962;2024-03-08T08:43:24;102212.41;;;4.33;79.02
51067;BME280;37112;45.892;-123.962;2024-03-08T08:45:37;102214.73;;;4.32;79.30
51067;BME280;37112;45.892;-123.962;2024-03-08T08:47:51;102214.92;;;4.31;79.29
51067;BME280;37112;45.892;-123.962;2024-03-08T08:50:06;102216.81;;;4.33;79.46
51067;BME280;37112;45.892;-123.962;2024-03-08T08:52:22;102221.70;;;4.35;79.63
51067;BME280;37112;45.892;-123.962;2024-03-08T08:54:35;102217.28;;;4.38;79.66
51067;BME280;37112;45.892;-123.962;2024-03-08T08:56:48;102218.83;;;4.39;79.72
51067;BME280;37112;45.892;-123.962;2024-03-08T08:59:01;102220.52;;;4.42;79.94
51067;BME280;37112;45.892;-123.962;2024-03-08T09:01:15;102218.39;;;4.44;79.96
51067;BME280;37112;45.892;-123.962;2024-03-08T09:03:29;102215.53;;;4.46;79.95
51067;BME280;37112;45.892;-123.962;2024-03-08T09:05:43;102216.34;;;4.49;80.07
51067;BME280;37112;45.892;-123.962;2024-03-08T09:07:55;102211.91;;;4.52;80.09
51067;BME280;37112;45.892;-123.962;2024-03-08T09:10:09;102213.29;;;4.54;80.19
51067;BME280;37112;45.892;-123.962;2024-03-08T09:12:26;102213.90;;;4.57;80.17
51067;BME280;37112;45.892;-123.962;2024-03-08T09:14:40;102217.04;;;4.60;80.11
51067;BME280;37112;45.892;-123.962;2024-03-08T09:16:53;102212.40;;;4.63;80.26
51067;BME280;37112;45.892;-123.962;2024-03-08T09:19:08;102213.04;;;4.66;80.15
51067;BME280;37112;45.892;-123.962;2024-03-08T09:21:22;102216.51;;;4.69;80.18
51067;BME280;37112;45.892;-123.962;2024-03-08T09:23:35;102215.09;;;4.70;80.08
51067;BME280;37112;45.892;-123.962;2024-03-08T09:25:49;102220.20;;;4.69;79.92
51067;BME280;37112;45.892;-123.962;2024-03-08T09:28:03;102221.94;;;4.70;79.98
51067;BME280;37112;45.892;-123.962;2024-03-08T09:30:16;102218.94;;;4.71;79.87
51067;BME280;37112;45.892;-123.962;2024-03-08T09:32:30;102219.31;;;4.70;79.88
51067;BME280;37112;45.892;-123.962;2024-03-08T09:34:43;102221.07;;;4.69;79.80
51067;BME280;37112;45.892;-123.962;2024-03-08T09:36:56;102215.26;;;4.70;80.03
51067;BME280;37112;45.892;-123.962;2024-03-08T09:39:12;102215.25;;;4.70;80.07
51067;BME280;37112;45.892;-123.962;2024-03-08T09:41:27;102213.83;;;4.71;80.21
51067;BME280;37112;45.892;-123.962;2024-03-08T09:43:42;102205.88;;;4.72;80.17
51067;BME280;37112;45.892;-123.962;2024-03-08T09:45:55;102207.42;;;4.74;80.29
51067;BME280;37112;45.892;-123.962;2024-03-08T09:48:12;102203.55;;;4.74;80.19
51067;BME280;37112;45.892;-123.962;2024-03-08T09:50:26;102204.61;;;4.74;80.19
51067;BME280;37112;45.892;-123.962;2024-03-08T09:52:43;102200.20;;;4.75;80.24
51067;BME280;37112;45.892;-123.962;2024-03-08T09:54:59;102196.16;;;4.75;80.18
51067;BME280;37112;45.892;-123.962;2024-03-08T09:57:13;102202.33;;;4.74;80.14
51067;BME280;37112;45.892;-123.962;2024-03-08T09:59:29;102196.88;;;4.74;80.25
51067;BME280;37112;45.892;-123.962;2024-03-08T10:02:00;102190.00;;;4.74;80.25
51067;BME280;37112;45.892;-123.962;2024-03-08T10:04:18;102189.83;;;4.75;80.29
51067;BME280;37112;45.892;-123.962;2024-03-08T10:06:32;102185.06;;;4.74;80.16
51067;BME280;37112;45.892;-123.962;2024-03-08T10:08:45;102181.39;;;4.74;80.26
51067;BME280;37112;45.892;-123.962;2024-03-08T10:10:58;102182.61;;;4.74;80.26
51067;BME280;37112;45.892;-123.962;2024-03-08T10:13:12;102180.17;;;4.73;80.23
51067;BME280;37112;45.892;-123.962;2024-03-08T10:15:29;102181.41;;;4.73;80.42
51067;BME280;37112;45.892;-123.962;2024-03-08T10:17:43;102177.72;;;4.73;80.51
51067;BME280;37112;45.892;-123.962;2024-03-08T10:19:59;102177.70;;;4.73;80.69
51067;BME280;37112;45.892;-123.962;2024-03-08T10:22:19;102179.97;;;4.74;80.72
51067;BME280;37112;45.892;-123.962;2024-03-08T10:24:33;102178.55;;;4.75;80.82
51067;BME280;37112;45.892;-123.962;2024-03-08T10:26:50;102176.43;;;4.77;80.86
51067;BME280;37112;45.892;-123.962;2024-03-08T10:29:06;102174.48;;;4.78;81.00
51067;BME280;37112;45.892;-123.962;2024-03-08T10:31:21;102172.48;;;4.80;81.14
51067;BME280;37112;45.892;-123.962;2024-03-08T10:47:02;102164.83;;;5.39;80.26
51067;BME280;37112;45.892;-123.962;2024-03-08T10:49:18;102161.23;;;5.51;80.21
51067;BME280;37112;45.892;-123.962;2024-03-08T10:51:34;102157.03;;;5.50;80.35
51067;BME280;37112;45.892;-123.962;2024-03-08T10:53:50;102157.98;;;5.47;80.26
51067;BME280;37112;45.892;-123.962;2024-03-08T10:56:05;102157.69;;;5.45;80.26
51067;BME280;37112;45.892;-123.962;2024-03-08T10:58:20;102157.40;;;5.42;80.13
51067;BME280;37112;45.892;-123.962;2024-03-08T11:00:33;102155.53;;;5.39;80.25
51067;BME280;37112;45.892;-123.962;2024-03-08T11:02:48;102154.16;;;5.38;80.40
51067;BME280;37112;45.892;-123.962;2024-03-08T11:05:05;102156.63;;;5.38;80.45
51067;BME280;37112;45.892;-123.962;2024-03-08T11:07:25;102156.10;;;5.38;80.42
51067;BME280;37112;45.892;-123.962;2024-03-08T11:09:40;102153.48;;;5.36;80.54
51067;BME280;37112;45.892;-123.962;2024-03-08T11:12:25;102152.66;;;5.34;80.43
51067;BME280;37112;45.892;-123.962;2024-03-08T11:14:49;102150.40;;;5.32;80.56
51067;BME280;37112;45.892;-123.962;2024-03-08T11:17:03;102152.52;;;5.32;80.55
51067;BME280;37112;45.892;-123.962;2024-03-08T11:19:30;102150.27;;;5.30;80.46
51067;BME280;37112;45.892;-123.962;2024-03-08T11:21:46;102151.18;;;5.29;80.41
51067;BME280;37112;45.892;-123.962;2024-03-08T11:24:07;102147.69;;;5.27;80.29
51067;BME280;37112;45.892;-123.962;2024-03-08T11:26:23;102146.48;;;5.26;80.56
51067;BME280;37112;45.892;-123.962;2024-03-08T11:28:36;102146.63;;;5.27;80.60
51067;BME280;37112;45.892;-123.962;2024-03-08T11:31:26;102146.27;;;5.27;80.57
51067;BME280;37112;45.892;-123.962;2024-03-08T11:33:42;102143.98;;;5.27;80.44
51067;BME280;37112;45.892;-123.962;2024-03-08T11:36:05;102143.42;;;5.28;80.51